Time;durP1;ratioP1;P1;durP2;ratioP2;P2;SDS_P1;SDS_P2;PMS_P1;PMS_P2;Temp;Humidity;BMP_temperature;BMP_pressure;BME280_temperature;BME280_humidity;BME280_pressure;Samples;Min_cycle;Max_cycle;Signal;HPM_P1;HPM_P2
2023/02/03 00:01:01;;;;;;;2.30;1.17;;;;;;;;;;5074929;28;20387;-65
2023/02/03 00:03:31;;;;;;;14.30;7.05;;;;;;;;;;5108683;28;20052;-65
2023/02/03 00:06:03;;;;;;;10.80;5.32;;;;;;;;;;5050745;28;20511;-65
2023/02/03 00:08:34;;;;;;;10.45;5.07;;;;;;;;;;5050873;28;20057;-65
2023/02/03 00:11:05;;;;;;;8.52;4.28;;;;;;;;;;5051083;28;20064;-65
2023/02/03 00:13:35;;;;;;;8.38;3.55;;;;;;;;;;5050981;28;20053;-65
2023/02/03 00:16:06;;;;;;;12.20;4.70;;;;;;;;;;5050725;28;20049;-65
2023/02/03 00:18:36;;;;;;;9.80;4.57;;;;;;;;;;5034250;28;20060;-65
2023/02/03 00:21:06;;;;;;;7.50;2.50;;;;;;;;;;5050731;28;20060;-65
2023/02/03 00:23:37;;;;;;;9.25;3.17;;;;;;;;;;5050340;28;20507;-64
2023/02/03 00:26:10;;;;;;;3.90;1.90;;;;;;;;;;5050514;28;20064;-64
2023/02/03 00:28:43;;;;;;;6.43;1.92;;;;;;;;;;5050823;28;20064;-64
2023/02/03 00:31:18;;;;;;;8.10;1.60;;;;;;;;;;5017422;28;20060;-65
2023/02/03 00:33:55;;;;;;;4.30;1.80;;;;;;;;;;5050435;28;20052;-65
2023/02/03 00:36:26;;;;;;;5.50;1.75;;;;;;;;;;5050372;28;20053;-65
2023/02/03 00:38:56;;;;;;;3.92;1.65;;;;;;;;;;5034170;28;20076;-65
2023/02/03 00:41:30;;;;;;;4.18;1.80;;;;;;;;;;4997328;28;20513;-65
2023/02/03 00:44:00;;;;;;;6.15;1.95;;;;;;;;;;4993919;28;20057;-65
2023/02/03 00:46:30;;;;;;;5.78;1.70;;;;;;;;;;5050360;28;20057;-65
2023/02/03 00:49:01;;;;;;;6.15;2.28;;;;;;;;;;5050210;28;20489;-65
2023/02/03 00:51:31;;;;;;;7.07;1.77;;;;;;;;;;5050174;28;20507;-65
2023/02/03 00:54:01;;;;;;;4.95;1.67;;;;;;;;;;5049908;28;20049;-65
2023/02/03 00:56:31;;;;;;;4.82;1.70;;;;;;;;;;5050000;28;20053;-65
2023/02/03 00:59:02;;;;;;;5.00;1.90;;;;;;;;;;5050243;28;20071;-65
2023/02/03 01:01:33;;;;;;;5.68;1.70;;;;;;;;;;5032960;28;20056;-65
2023/02/03 01:04:03;;;;;;;5.78;2.22;;;;;;;;;;5033303;28;20455;-65
2023/02/03 01:06:34;;;;;;;5.22;1.70;;;;;;;;;;5050098;28;20044;-65
2023/02/03 01:09:04;;;;;;;5.43;1.83;;;;;;;;;;4977779;28;20090;-65
2023/02/03 01:11:34;;;;;;;5.47;1.90;;;;;;;;;;4999389;28;20062;-65
2023/02/03 01:14:04;;;;;;;4.53;1.80;;;;;;;;;;5006921;28;20529;-65
2023/02/03 01:16:37;;;;;;;4.85;2.00;;;;;;;;;;5006873;28;20053;-65
2023/02/03 01:19:07;;;;;;;9.27;2.20;;;;;;;;;;5001043;28;20501;-65
2023/02/03 01:21:39;;;;;;;12.07;2.75;;;;;;;;;;4990182;28;20057;-64
2023/02/03 01:24:09;;;;;;;6.40;2.40;;;;;;;;;;4990500;28;20043;-65
2023/02/03 01:26:40;;;;;;;7.93;2.47;;;;;;;;;;4990125;28;20414;-65
2023/02/03 01:29:10;;;;;;;7.07;2.53;;;;;;;;;;4958181;28;20054;-65
2023/02/03 01:31:41;;;;;;;10.23;2.30;;;;;;;;;;4999713;28;20514;-66
2023/02/03 01:34:15;;;;;;;10.70;2.55;;;;;;;;;;4990389;28;20062;-65
2023/02/03 01:36:47;;;;;;;7.25;2.38;;;;;;;;;;4990402;28;20062;-65
2023/02/03 01:39:17;;;;;;;6.60;2.63;;;;;;;;;;4957855;28;20058;-64
2023/02/03 01:41:47;;;;;;;11.23;2.95;;;;;;;;;;4951154;29;20442;-64
2023/02/03 01:44:40;;;;;;;8.80;3.03;;;;;;;;;;4970686;28;20057;-64
2023/02/03 01:47:32;;;;;;;9.43;2.63;;;;;;;;;;5011322;28;20053;-66
2023/02/03 01:50:24;;;;;;;9.35;2.92;;;;;;;;;;5028793;28;20050;-65
2023/02/03 01:53:02;;;;;;;11.88;3.15;;;;;;;;;;5029345;28;20517;-65
2023/02/03 01:55:39;;;;;;;8.00;2.80;;;;;;;;;;5029425;28;20576;-65
2023/02/03 01:58:19;;;;;;;7.55;3.40;;;;;;;;;;5029015;28;20069;-64
2023/02/03 02:00:51;;;;;;;10.63;3.67;;;;;;;;;;5029155;28;20049;-65
2023/02/03 02:03:28;;;;;;;9.38;3.88;;;;;;;;;;5028818;28;20448;-65
2023/02/03 02:06:06;;;;;;;13.15;4.30;;;;;;;;;;5029472;28;20155;-65
2023/02/03 02:08:37;;;;;;;15.25;4.97;;;;;;;;;;4960963;28;20050;-65
2023/02/03 02:11:08;;;;;;;16.65;5.28;;;;;;;;;;5009682;28;20078;-65
2023/02/03 02:13:44;;;;;;;16.70;5.70;;;;;;;;;;4992770;28;20057;-65
2023/02/03 02:16:29;;;;;;;18.90;6.63;;;;;;;;;;5009419;28;20050;-64
2023/02/03 02:19:16;;;;;;;19.02;5.55;;;;;;;;;;4980881;28;20066;-65
2023/02/03 02:22:19;;;;;;;22.58;6.78;;;;;;;;;;4954104;28;20047;-65
2023/02/03 02:25:02;;;;;;;24.15;9.45;;;;;;;;;;4970115;28;20062;-64
2023/02/03 02:28:09;;;;;;;17.70;6.03;;;;;;;;;;4989558;28;20053;-65
2023/02/03 02:30:50;;;;;;;17.70;6.57;;;;;;;;;;4940431;29;20059;-65
2023/02/03 02:33:34;;;;;;;17.65;6.38;;;;;;;;;;4912437;29;20052;-64
2023/02/03 02:36:15;;;;;;;16.73;6.00;;;;;;;;;;4912989;29;20056;-65
2023/02/03 02:38:51;;;;;;;15.88;5.78;;;;;;;;;;4925928;29;20060;-65
2023/02/03 02:41:25;;;;;;;18.55;5.53;;;;;;;;;;4927304;29;20048;-65
2023/02/03 02:44:09;;;;;;;14.68;5.25;;;;;;;;;;4912490;29;20075;-65
2023/02/03 02:46:47;;;;;;;16.65;5.90;;;;;;;;;;4882050;29;20061;-65
2023/02/03 02:49:50;;;;;;;16.63;6.50;;;;;;;;;;4912903;29;20055;-65
2023/02/03 02:52:23;;;;;;;17.15;5.75;;;;;;;;;;4819866;29;20065;-65
2023/02/03 02:54:57;;;;;;;15.40;5.10;;;;;;;;;;4786209;29;20080;-66
2023/02/03 02:57:30;;;;;;;15.68;5.63;;;;;;;;;;4801795;29;20062;-65
2023/02/03 03:00:01;;;;;;;16.27;5.72;;;;;;;;;;4816724;29;20559;-65
2023/02/03 03:02:35;;;;;;;18.23;5.07;;;;;;;;;;4817320;29;20066;-65
2023/02/03 03:05:08;;;;;;;10.30;4.30;;;;;;;;;;4823213;29;20077;-65
2023/02/03 03:07:54;;;;;;;13.95;6.22;;;;;;;;;;4822864;29;20073;-65
2023/02/03 03:10:29;;;;;;;12.30;5.60;;;;;;;;;;4788368;29;20055;-65
2023/02/03 03:13:04;;;;;;;13.65;4.82;;;;;;;;;;4792653;29;20054;-65
2023/02/03 03:15:36;;;;;;;20.52;4.93;;;;;;;;;;4822744;29;20055;-65
2023/02/03 03:18:06;;;;;;;;;;;;;;;;;;4845905;29;20053;-65
2023/02/03 03:20:41;;;;;;;9.73;4.00;;;;;;;;;;4878207;29;19924;-65
2023/02/03 03:23:23;;;;;;;8.77;3.83;;;;;;;;;;4877853;29;20497;-65
2023/02/03 03:26:07;;;;;;;12.00;4.65;;;;;;;;;;4909343;29;20449;-64
2023/02/03 03:29:00;;;;;;;12.77;4.68;;;;;;;;;;4905583;29;20068;-65
2023/02/03 03:31:30;;;;;;;12.52;4.05;;;;;;;;;;4917012;29;20064;-65
2023/02/03 03:34:00;;;;;;;9.60;3.83;;;;;;;;;;4936292;28;20064;-65
2023/02/03 03:36:46;;;;;;;11.30;4.90;;;;;;;;;;4973312;28;20051;-65
2023/02/03 03:39:30;;;;;;;10.70;4.32;;;;;;;;;;4972978;28;20062;-65
2023/02/03 03:42:06;;;;;;;9.38;4.32;;;;;;;;;;4956683;28;20403;-65
2023/02/03 03:44:44;;;;;;;8.40;3.70;;;;;;;;;;4972774;28;20503;-65
2023/02/03 03:47:20;;;;;;;10.90;4.68;;;;;;;;;;4976214;28;20054;-65
2023/02/03 03:49:52;;;;;;;9.32;4.07;;;;;;;;;;4992009;28;20210;-65
2023/02/03 03:52:29;;;;;;;12.10;4.47;;;;;;;;;;4998595;28;20072;-65
2023/02/03 03:55:02;;;;;;;14.57;4.82;;;;;;;;;;4994524;28;20048;-66
2023/02/03 03:58:06;;;;;;;15.07;4.20;;;;;;;;;;5075032;28;20052;-65
2023/02/03 04:00:39;;;;;;;9.80;4.53;;;;;;;;;;5014635;28;20054;-65
2023/02/03 04:03:19;;;;;;;13.80;4.95;;;;;;;;;;5031222;28;20057;-65
2023/02/03 04:05:50;;;;;;;14.57;5.22;;;;;;;;;;5031463;28;20379;-66
2023/02/03 04:08:21;;;;;;;14.38;4.82;;;;;;;;;;5014503;28;20058;-65
2023/02/03 04:10:51;;;;;;;15.98;5.07;;;;;;;;;;5014576;28;20049;-65
2023/02/03 04:13:21;;;;;;;16.38;5.97;;;;;;;;;;5014165;28;20057;-65
2023/02/03 04:15:51;;;;;;;11.98;5.53;;;;;;;;;;5031403;28;20053;-65
2023/02/03 04:18:21;;;;;;;14.35;5.63;;;;;;;;;;5030805;28;20094;-65
2023/02/03 04:20:52;;;;;;;11.48;4.43;;;;;;;;;;4998711;28;20064;-65
2023/02/03 04:23:22;;;;;;;12.52;4.93;;;;;;;;;;5014223;28;20145;-65
2023/02/03 04:25:52;;;;;;;14.93;5.07;;;;;;;;;;4997994;28;20059;-65
2023/02/03 04:28:22;;;;;;;13.80;4.53;;;;;;;;;;4997856;28;20052;-65
2023/02/03 04:30:53;;;;;;;12.65;4.90;;;;;;;;;;5031037;28;20054;-65
2023/02/03 04:33:23;;;;;;;11.48;4.80;;;;;;;;;;5031024;28;20400;-65
2023/02/03 04:35:53;;;;;;;12.60;4.70;;;;;;;;;;5032389;28;20057;-66
2023/02/03 04:38:23;;;;;;;10.82;4.88;;;;;;;;;;5092122;28;20505;-65
2023/02/03 04:40:53;;;;;;;11.55;4.40;;;;;;;;;;5057740;28;20055;-65
2023/02/03 04:43:23;;;;;;;11.70;4.80;;;;;;;;;;5024314;28;20051;-65
2023/02/03 04:45:53;;;;;;;13.07;4.82;;;;;;;;;;5057343;28;20477;-65
2023/02/03 04:48:23;;;;;;;10.88;4.65;;;;;;;;;;5093264;28;20047;-65
2023/02/03 04:50:53;;;;;;;14.07;4.97;;;;;;;;;;5073867;28;20470;-65
2023/02/03 04:53:23;;;;;;;11.63;4.63;;;;;;;;;;5057591;28;20519;-65
2023/02/03 04:55:53;;;;;;;13.27;5.03;;;;;;;;;;5092812;28;20040;-65
2023/02/03 04:58:25;;;;;;;11.80;4.88;;;;;;;;;;5041012;28;20052;-65
2023/02/03 05:00:56;;;;;;;11.50;4.60;;;;;;;;;;5092729;28;20044;-65
2023/02/03 05:03:26;;;;;;;11.25;4.63;;;;;;;;;;5092634;28;20048;-65
2023/02/03 05:05:56;;;;;;;16.05;5.15;;;;;;;;;;5075399;28;20047;-65
2023/02/03 05:08:26;;;;;;;14.43;4.95;;;;;;;;;;5092654;28;20043;-65
2023/02/03 05:10:56;;;;;;;10.88;4.40;;;;;;;;;;5073620;28;20495;-65
2023/02/03 05:13:30;;;;;;;12.38;4.80;;;;;;;;;;5092776;28;20044;-65
2023/02/03 05:16:00;;;;;;;10.57;4.43;;;;;;;;;;5007415;28;20048;-65
2023/02/03 05:18:30;;;;;;;11.18;4.13;;;;;;;;;;5057203;28;20052;-65
2023/02/03 05:21:00;;;;;;;10.55;3.55;;;;;;;;;;5053073;28;20052;-66
2023/02/03 05:23:30;;;;;;;11.90;3.95;;;;;;;;;;5019812;28;20052;-65
2023/02/03 05:26:03;;;;;;;8.55;3.80;;;;;;;;;;5068930;28;20048;-65
2023/02/03 05:28:33;;;;;;;10.90;3.67;;;;;;;;;;5069730;28;20435;-65
2023/02/03 05:31:04;;;;;;;9.80;4.00;;;;;;;;;;5053421;28;20075;-65
2023/02/03 05:33:34;;;;;;;8.48;3.72;;;;;;;;;;5069819;28;20056;-64
2023/02/03 05:36:04;;;;;;;10.77;3.83;;;;;;;;;;5069616;28;20048;-65
2023/02/03 05:38:34;;;;;;;15.65;3.97;;;;;;;;;;5036590;28;20057;-64
2023/02/03 05:43:52;;;;;;;9.23;3.97;;;;;;;;;;5049679;28;20059;-65
2023/02/03 05:46:23;;;;;;;10.90;4.10;;;;;;;;;;5049560;28;20061;-65
2023/02/03 05:48:53;;;;;;;11.15;3.60;;;;;;;;;;5049386;28;20053;-65
2023/02/03 05:51:23;;;;;;;12.75;4.00;;;;;;;;;;5049409;28;20061;-65
2023/02/03 05:53:53;;;;;;;8.43;3.75;;;;;;;;;;5048919;28;20452;-65
2023/02/03 05:56:24;;;;;;;9.40;4.03;;;;;;;;;;5049180;28;20516;-65
2023/02/03 05:58:54;;;;;;;11.05;4.20;;;;;;;;;;5049456;28;20053;-65
2023/02/03 06:01:24;;;;;;;11.05;4.35;;;;;;;;;;4984224;28;20057;-65
2023/02/03 06:03:54;;;;;;;10.30;3.45;;;;;;;;;;5015958;28;20156;-65
2023/02/03 06:06:26;;;;;;;8.95;3.70;;;;;;;;;;5049361;28;20061;-65
2023/02/03 06:08:56;;;;;;;9.75;4.15;;;;;;;;;;5049522;28;20075;-65
2023/02/03 06:11:25;;;;;;;8.23;3.75;;;;;;;;;;5049145;28;20056;-65
2023/02/03 06:13:57;;;;;;;8.90;3.60;;;;;;;;;;5049399;28;20045;-65
2023/02/03 06:16:28;;;;;;;10.55;3.28;;;;;;;;;;5016248;28;20045;-65
2023/02/03 06:18:59;;;;;;;9.98;3.67;;;;;;;;;;5075247;28;20048;-65
2023/02/03 06:21:30;;;;;;;9.95;3.25;;;;;;;;;;5089800;28;20080;-65
2023/02/03 06:23:59;;;;;;;10.25;3.90;;;;;;;;;;5091981;28;20040;-65
2023/02/03 06:26:29;;;;;;;6.10;2.85;;;;;;;;;;5068876;28;20052;-65
2023/02/03 06:29:00;;;;;;;7.95;2.88;;;;;;;;;;5069230;28;20060;-66
2023/02/03 06:31:29;;;;;;;8.65;3.28;;;;;;;;;;5029092;28;20049;-66
2023/02/03 06:34:01;;;;;;;8.00;3.03;;;;;;;;;;5029164;28;20062;-66
2023/02/03 06:36:32;;;;;;;7.40;3.10;;;;;;;;;;4981872;28;20049;-66
2023/02/03 06:39:02;;;;;;;6.90;3.13;;;;;;;;;;5032896;28;20053;-65
2023/02/03 06:41:32;;;;;;;5.45;2.42;;;;;;;;;;5016499;28;20053;-66
2023/02/03 06:44:02;;;;;;;7.55;3.50;;;;;;;;;;4999916;28;20060;-65
2023/02/03 06:46:32;;;;;;;6.55;2.70;;;;;;;;;;5016163;28;20198;-65
2023/02/03 06:49:02;;;;;;;6.95;2.90;;;;;;;;;;5048992;28;20061;-66
2023/02/03 06:51:32;;;;;;;6.95;2.83;;;;;;;;;;5049340;28;20050;-65
2023/02/03 06:54:03;;;;;;;7.13;2.72;;;;;;;;;;5032647;28;20060;-66
2023/02/03 06:56:34;;;;;;;7.40;2.90;;;;;;;;;;5032548;28;20382;-66
2023/02/03 06:59:04;;;;;;;7.53;2.90;;;;;;;;;;4999494;28;20049;-66
2023/02/03 07:01:34;;;;;;;6.25;2.90;;;;;;;;;;5048742;28;20045;-66
2023/02/03 07:04:05;;;;;;;6.05;2.72;;;;;;;;;;5041840;28;20068;-65
2023/02/03 07:06:35;;;;;;;7.85;3.03;;;;;;;;;;5052550;28;20061;-66
2023/02/03 07:09:06;;;;;;;6.38;2.50;;;;;;;;;;5042848;28;20048;-66
2023/02/03 07:11:36;;;;;;;6.80;2.38;;;;;;;;;;5095018;28;20521;-66
2023/02/03 07:14:06;;;;;;;7.55;2.65;;;;;;;;;;5052303;28;20060;-66
2023/02/03 07:16:36;;;;;;;7.63;2.85;;;;;;;;;;5052025;28;20455;-66
2023/02/03 07:19:06;;;;;;;7.63;2.53;;;;;;;;;;4996199;28;20057;-66
2023/02/03 07:21:36;;;;;;;5.43;2.22;;;;;;;;;;5012599;28;20167;-65
2023/02/03 07:24:06;;;;;;;5.13;2.33;;;;;;;;;;5012144;28;20069;-65
2023/02/03 07:26:37;;;;;;;6.00;2.58;;;;;;;;;;5012201;28;20501;-66
2023/02/03 07:29:08;;;;;;;8.75;2.10;;;;;;;;;;5012027;28;20053;-66
2023/02/03 07:31:38;;;;;;;4.28;1.92;;;;;;;;;;5012335;28;20064;-66
2023/02/03 07:34:08;;;;;;;6.82;2.40;;;;;;;;;;5012219;28;20103;-66
2023/02/03 07:36:38;;;;;;;9.55;4.03;;;;;;;;;;4995649;28;20068;-65
2023/02/03 07:39:08;;;;;;;12.45;3.92;;;;;;;;;;4979524;28;20089;-65
2023/02/03 07:41:38;;;;;;;7.90;2.33;;;;;;;;;;4963546;28;20061;-66
2023/02/03 07:44:09;;;;;;;6.22;1.90;;;;;;;;;;5011876;28;20054;-66
2023/02/03 07:46:43;;;;;;;3.90;1.98;;;;;;;;;;5012258;28;20505;-66
2023/02/03 07:49:14;;;;;;;5.28;2.40;;;;;;;;;;4971853;28;20062;-65
2023/02/03 07:51:44;;;;;;;6.13;2.33;;;;;;;;;;4966378;28;20050;-65
2023/02/03 07:54:14;;;;;;;6.35;1.40;;;;;;;;;;4959755;28;20054;-65
2023/02/03 07:56:44;;;;;;;3.70;1.65;;;;;;;;;;5012272;28;20053;-66
2023/02/03 07:59:13;;;;;;;7.57;2.08;;;;;;;;;;5031334;28;20432;-66
2023/02/03 08:01:43;;;;;;;7.47;1.92;;;;;;;;;;5031504;28;20054;-65
2023/02/03 08:04:16;;;;;;;7.88;2.72;;;;;;;;;;5031540;28;20112;-65
2023/02/03 08:06:46;;;;;;;4.55;1.83;;;;;;;;;;5015352;28;20060;-65
2023/02/03 08:09:16;;;;;;;3.60;1.80;;;;;;;;;;5014441;28;20046;-66
2023/02/03 08:11:47;;;;;;;3.67;1.70;;;;;;;;;;5031313;28;20058;-66
2023/02/03 08:14:17;;;;;;;4.10;1.98;;;;;;;;;;5015273;28;20632;-66
2023/02/03 08:16:48;;;;;;;2.80;1.50;;;;;;;;;;5015201;28;20054;-66
2023/02/03 08:19:19;;;;;;;4.95;1.35;;;;;;;;;;5030826;28;20057;-66
2023/02/03 08:21:49;;;;;;;4.07;1.98;;;;;;;;;;5011302;28;20430;-66
2023/02/03 08:24:19;;;;;;;8.68;2.08;;;;;;;;;;5011067;28;20849;-66
2023/02/03 08:26:49;;;;;;;4.75;2.22;;;;;;;;;;5008056;28;20057;-66
2023/02/03 08:29:20;;;;;;;5.50;1.60;;;;;;;;;;5034094;28;20528;-66
2023/02/03 08:31:50;;;;;;;6.82;1.50;;;;;;;;;;5050750;28;20096;-66
2023/02/03 08:34:20;;;;;;;3.13;1.77;;;;;;;;;;5033753;28;20064;-66
2023/02/03 08:36:50;;;;;;;8.10;1.45;;;;;;;;;;5034404;28;20049;-65
2023/02/03 08:39:20;;;;;;;3.85;1.10;;;;;;;;;;5030588;28;20127;-66
2023/02/03 08:41:50;;;;;;;2.95;1.70;;;;;;;;;;4998085;28;20417;-65
2023/02/03 08:44:20;;;;;;;4.50;1.25;;;;;;;;;;4997598;28;20563;-65
2023/02/03 08:46:53;;;;;;;3.40;1.50;;;;;;;;;;5030566;28;20058;-66
2023/02/03 08:49:26;;;;;;;5.00;1.60;;;;;;;;;;5030491;28;20579;-65
2023/02/03 08:51:57;;;;;;;4.43;1.60;;;;;;;;;;5030456;28;20394;-66
2023/02/03 08:54:27;;;;;;;4.30;1.55;;;;;;;;;;5030415;28;20057;-66
2023/02/03 08:56:58;;;;;;;4.38;1.42;;;;;;;;;;5030515;28;20053;-65
2023/02/03 08:59:29;;;;;;;5.25;1.48;;;;;;;;;;5051282;28;20053;-65
2023/02/03 09:02:00;;;;;;;4.78;1.42;;;;;;;;;;5036738;28;20048;-65
2023/02/03 09:04:32;;;;;;;3.90;1.50;;;;;;;;;;5070207;28;20540;-66
2023/02/03 09:07:03;;;;;;;2.67;1.50;;;;;;;;;;5069996;28;20075;-65
2023/02/03 09:09:33;;;;;;;5.47;1.50;;;;;;;;;;5070130;28;20052;-66
2023/02/03 09:12:05;;;;;;;2.70;1.10;;;;;;;;;;5070110;28;20056;-65
2023/02/03 09:14:35;;;;;;;4.43;1.10;;;;;;;;;;5036520;28;20423;-65
2023/02/03 09:17:09;;;;;;;4.65;1.17;;;;;;;;;;5016451;28;20058;-65
2023/02/03 09:19:39;;;;;;;2.63;1.00;;;;;;;;;;5075397;28;20044;-66
2023/02/03 09:22:09;;;;;;;6.38;1.30;;;;;;;;;;5092733;28;20036;-65
2023/02/03 09:24:40;;;;;;;3.90;1.27;;;;;;;;;;5029440;28;20076;-65
2023/02/03 09:27:11;;;;;;;8.50;1.40;;;;;;;;;;5030009;28;20050;-66
2023/02/03 09:29:44;;;;;;;4.10;0.93;;;;;;;;;;5029616;28;20100;-66
2023/02/03 09:32:14;;;;;;;3.55;2.30;;;;;;;;;;4980944;28;20768;-66
2023/02/03 09:34:44;;;;;;;2.92;1.45;;;;;;;;;;4981085;28;20049;-66
2023/02/03 09:37:14;;;;;;;1.98;1.02;;;;;;;;;;5013158;28;20064;-66
2023/02/03 09:39:44;;;;;;;4.28;1.05;;;;;;;;;;4981108;28;20060;-66
2023/02/03 09:42:31;;;;;;;2.92;1.20;;;;;;;;;;5030255;28;20728;-66
2023/02/03 09:45:25;;;;;;;2.90;1.10;;;;;;;;;;5029502;28;20053;-66
2023/02/03 09:48:09;;;;;;;5.47;1.20;;;;;;;;;;5029650;28;20539;-63
2023/02/03 09:50:41;;;;;;;2.53;1.10;;;;;;;;;;5029555;28;20057;-64
2023/02/03 09:53:36;;;;;;;4.90;0.85;;;;;;;;;;4996629;28;20052;-64
2023/02/03 09:56:51;;;;;;;2.70;1.23;;;;;;;;;;5067885;28;20056;-64
2023/02/03 09:59:24;;;;;;;3.90;1.10;;;;;;;;;;5049512;28;20057;-64
2023/02/03 10:02:21;;;;;;;4.30;0.90;;;;;;;;;;5032596;28;20056;-65
2023/02/03 10:04:54;;;;;;;;;;;;;;;;;;5049900;28;20049;-64
2023/02/03 10:07:54;;;;;;;1.55;0.75;;;;;;;;;;5049387;28;19963;-64
2023/02/03 10:11:10;;;;;;;5.10;0.85;;;;;;;;;;5000358;28;20053;-65
2023/02/03 10:14:08;;;;;;;1.98;1.20;;;;;;;;;;5033325;28;20076;-65
2023/02/03 10:17:13;;;;;;;2.15;0.70;;;;;;;;;;5000372;28;20053;-65
2023/02/03 10:19:59;;;;;;;1.77;0.80;;;;;;;;;;4993971;28;20069;-65
2023/02/03 10:22:42;;;;;;;2.50;0.80;;;;;;;;;;4978468;28;20066;-64
2023/02/03 10:25:19;;;;;;;1.50;0.70;;;;;;;;;;4961112;28;20491;-65
2023/02/03 10:27:55;;;;;;;1.95;0.68;;;;;;;;;;4977924;28;20054;-65
2023/02/03 10:30:43;;;;;;;0.90;0.50;;;;;;;;;;4993686;28;20105;-65
2023/02/03 10:33:16;;;;;;;4.40;0.93;;;;;;;;;;5002633;28;20058;-64
2023/02/03 10:35:57;;;;;;;0.82;0.50;;;;;;;;;;4980539;28;20053;-65
2023/02/03 10:38:33;;;;;;;1.67;0.50;;;;;;;;;;4948226;28;20050;-65
2023/02/03 10:41:04;;;;;;;2.03;0.80;;;;;;;;;;4980363;28;20046;-64
2023/02/03 10:43:46;;;;;;;2.15;0.63;;;;;;;;;;5013445;28;20054;-65
2023/02/03 10:46:29;;;;;;;1.20;0.43;;;;;;;;;;4954717;29;20173;-65
2023/02/03 10:48:59;;;;;;;5.18;0.98;;;;;;;;;;4907295;29;20438;-65
2023/02/03 10:51:40;;;;;;;2.85;0.52;;;;;;;;;;4954435;28;20074;-65
2023/02/03 10:54:33;;;;;;;3.42;0.50;;;;;;;;;;4941787;28;20058;-65
2023/02/03 10:57:11;;;;;;;0.98;0.40;;;;;;;;;;5016479;28;20057;-64
2023/02/03 10:59:44;;;;;;;0.70;0.52;;;;;;;;;;5015947;28;20631;-64
2023/02/03 11:02:29;;;;;;;3.53;0.43;;;;;;;;;;4999921;28;20082;-64
2023/02/03 11:05:18;;;;;;;0.90;0.40;;;;;;;;;;4976876;28;20051;-64
2023/02/03 11:07:48;;;;;;;1.33;0.30;;;;;;;;;;4993104;28;20061;-64
2023/02/03 11:10:39;;;;;;;2.67;0.60;;;;;;;;;;4973536;28;20054;-65
2023/02/03 11:13:15;;;;;;;5.90;0.40;;;;;;;;;;4956851;28;20352;-64
2023/02/03 11:15:59;;;;;;;1.00;0.55;;;;;;;;;;4941600;28;20063;-64
2023/02/03 11:18:41;;;;;;;2.10;0.32;;;;;;;;;;4973340;28;20063;-64
2023/02/03 11:21:20;;;;;;;0.43;0.32;;;;;;;;;;4973254;28;20050;-64
2023/02/03 11:24:17;;;;;;;2.00;0.47;;;;;;;;;;4999383;28;20068;-64
2023/02/03 11:27:18;;;;;;;4.43;0.93;;;;;;;;;;5031848;28;20742;-64
2023/02/03 11:30:07;;;;;;;1.42;0.55;;;;;;;;;;5031909;28;20065;-64
2023/02/03 11:32:41;;;;;;;4.80;0.45;;;;;;;;;;5015588;28;20049;-65
2023/02/03 11:35:28;;;;;;;2.28;0.30;;;;;;;;;;5031873;28;20064;-65
2023/02/03 11:38:00;;;;;;;0.57;0.30;;;;;;;;;;5015397;28;20066;-65
2023/02/03 11:40:37;;;;;;;0.70;0.40;;;;;;;;;;5031917;28;20421;-64
2023/02/03 11:43:17;;;;;;;3.03;0.70;;;;;;;;;;5045582;28;20049;-65
2023/02/03 11:45:51;;;;;;;3.78;0.55;;;;;;;;;;5051944;28;20542;-64
2023/02/03 11:48:30;;;;;;;2.08;0.73;;;;;;;;;;5012358;28;20044;-64
2023/02/03 11:51:02;;;;;;;;;;;;;;;;;;5076775;28;20067;-64
2023/02/03 11:53:58;;;;;;;1.15;0.50;;;;;;;;;;5071764;28;19920;-67
2023/02/03 11:56:36;;;;;;;0.70;0.30;;;;;;;;;;4992286;28;20163;-64
2023/02/03 11:59:34;;;;;;;0.75;0.30;;;;;;;;;;4960540;28;20085;-65
2023/02/03 12:02:40;;;;;;;3.78;0.20;;;;;;;;;;4959932;28;20046;-65
2023/02/03 12:05:20;;;;;;;1.15;0.20;;;;;;;;;;4905775;29;20067;-65
2023/02/03 12:07:55;;;;;;;;;;;;;;;;;;4953997;29;20067;-65
2023/02/03 12:10:48;;;;;;;0.65;0.40;;;;;;;;;;4953480;29;19923;-65
2023/02/03 12:13:54;;;;;;;1.73;0.30;;;;;;;;;;4953048;29;20078;-65
2023/02/03 12:16:55;;;;;;;2.15;0.40;;;;;;;;;;4921380;29;20423;-65
2023/02/03 12:20:02;;;;;;;1.58;0.20;;;;;;;;;;4936937;29;20546;-65
2023/02/03 12:22:56;;;;;;;0.52;0.30;;;;;;;;;;4953001;29;20431;-65
2023/02/03 12:25:27;;;;;;;0.68;0.20;;;;;;;;;;4952855;29;20093;-65
2023/02/03 12:28:05;;;;;;;1.27;0.20;;;;;;;;;;4952907;29;20066;-65
2023/02/03 12:30:43;;;;;;;0.30;0.20;;;;;;;;;;4958041;28;20066;-65
2023/02/03 12:33:24;;;;;;;0.50;0.17;;;;;;;;;;4976683;28;20060;-66
2023/02/03 12:36:28;;;;;;;0.30;0.20;;;;;;;;;;5030844;28;20520;-65
2023/02/03 12:39:21;;;;;;;0.80;0.30;;;;;;;;;;5014118;28;20539;-65
2023/02/03 12:42:05;;;;;;;1.20;0.30;;;;;;;;;;4989054;28;20042;-66
2023/02/03 12:45:16;;;;;;;0.20;0.10;;;;;;;;;;4991293;28;20066;-66
2023/02/03 12:47:54;;;;;;;0.38;0.20;;;;;;;;;;5030418;28;20053;-65
2023/02/03 12:50:39;;;;;;;0.30;0.20;;;;;;;;;;4999706;28;20068;-65
2023/02/03 12:53:34;;;;;;;2.53;0.30;;;;;;;;;;4981614;28;20053;-66
2023/02/03 12:56:11;;;;;;;0.50;0.28;;;;;;;;;;5010530;28;20413;-65
2023/02/03 12:58:47;;;;;;;1.08;0.30;;;;;;;;;;5010602;28;20061;-65
2023/02/03 13:01:56;;;;;;;0.65;0.30;;;;;;;;;;4994742;28;20057;-65
2023/02/03 13:04:35;;;;;;;0.40;0.22;;;;;;;;;;4904686;29;20058;-65
2023/02/03 13:07:26;;;;;;;1.35;0.20;;;;;;;;;;4904652;29;20095;-65
2023/02/03 13:10:05;;;;;;;3.53;0.20;;;;;;;;;;4922489;29;20059;-65
2023/02/03 13:12:43;;;;;;;1.15;0.50;;;;;;;;;;4898288;29;20063;-65
2023/02/03 13:15:24;;;;;;;1.40;0.47;;;;;;;;;;4913822;29;20056;-65
2023/02/03 13:18:18;;;;;;;1.85;0.40;;;;;;;;;;4914989;29;20060;-65
2023/02/03 13:20:49;;;;;;;0.90;0.50;;;;;;;;;;4894903;29;20060;-64
2023/02/03 13:23:20;;;;;;;2.08;0.32;;;;;;;;;;4901514;29;20063;-64
2023/02/03 13:25:56;;;;;;;0.35;0.25;;;;;;;;;;4932678;29;20067;-65
2023/02/03 13:28:56;;;;;;;0.28;0.20;;;;;;;;;;4916953;29;20500;-66
2023/02/03 13:32:03;;;;;;;0.93;0.20;;;;;;;;;;4900962;29;20496;-65
2023/02/03 13:34:54;;;;;;;0.38;0.30;;;;;;;;;;4964943;28;20102;-65
2023/02/03 13:38:00;;;;;;;0.68;0.40;;;;;;;;;;4971135;28;20446;-66
2023/02/03 13:41:16;;;;;;;1.17;0.50;;;;;;;;;;4971147;28;20428;-65
2023/02/03 13:43:51;;;;;;;2.65;0.30;;;;;;;;;;5049666;28;20531;-66
2023/02/03 13:46:26;;;;;;;1.98;0.50;;;;;;;;;;5048539;28;20045;-66
2023/02/03 13:48:59;;;;;;;0.98;0.30;;;;;;;;;;5089878;28;20178;-65
2023/02/03 13:51:33;;;;;;;1.45;0.22;;;;;;;;;;5073814;28;20079;-65
2023/02/03 13:54:20;;;;;;;1.02;0.30;;;;;;;;;;5057361;28;20052;-63
2023/02/03 13:57:21;;;;;;;0.50;0.30;;;;;;;;;;5089720;28;20051;-63
2023/02/03 13:59:51;;;;;;;1.00;0.28;;;;;;;;;;5029687;28;20398;-64
2023/02/03 14:02:21;;;;;;;0.55;0.43;;;;;;;;;;5029448;28;20409;-64
2023/02/03 14:04:56;;;;;;;1.73;0.45;;;;;;;;;;4990594;28;20057;-64
2023/02/03 14:07:39;;;;;;;1.98;0.30;;;;;;;;;;5003116;28;20061;-64
2023/02/03 14:10:12;;;;;;;2.38;0.55;;;;;;;;;;4992456;28;20402;-64
2023/02/03 14:12:51;;;;;;;7.28;0.30;;;;;;;;;;5003436;28;20801;-64
2023/02/03 14:15:28;;;;;;;1.20;0.20;;;;;;;;;;5006416;28;20073;-65
2023/02/03 14:18:24;;;;;;;;;;;;;;;;;;5009959;28;20054;-64
2023/02/03 14:21:09;;;;;;;1.73;0.40;;;;;;;;;;4991614;28;19922;-63
2023/02/03 14:23:44;;;;;;;1.48;0.35;;;;;;;;;;5016704;28;20057;-64
2023/02/03 14:26:23;;;;;;;0.43;0.20;;;;;;;;;;5017988;28;20061;-64
2023/02/03 14:28:53;;;;;;;1.50;0.35;;;;;;;;;;5029130;28;20045;-64
2023/02/03 14:31:25;;;;;;;0.40;0.20;;;;;;;;;;5028997;28;20056;-64
2023/02/03 14:34:08;;;;;;;1.00;0.30;;;;;;;;;;5028846;28;20157;-64
2023/02/03 14:36:40;;;;;;;0.60;0.40;;;;;;;;;;5017517;28;20052;-64
2023/02/03 14:39:16;;;;;;;0.93;0.28;;;;;;;;;;5052235;28;20048;-64
2023/02/03 14:42:12;;;;;;;0.77;0.20;;;;;;;;;;5065505;28;20052;-64
2023/02/03 14:45:08;;;;;;;0.70;0.30;;;;;;;;;;5066101;28;20559;-64
2023/02/03 14:47:47;;;;;;;0.63;0.45;;;;;;;;;;5048580;28;20052;-64
2023/02/03 14:50:34;;;;;;;0.50;0.30;;;;;;;;;;5047724;28;20087;-63
2023/02/03 14:53:20;;;;;;;0.82;0.50;;;;;;;;;;4995340;28;20127;-64
2023/02/03 14:56:07;;;;;;;2.40;0.30;;;;;;;;;;5032221;28;20057;-64
2023/02/03 14:58:54;;;;;;;3.20;0.30;;;;;;;;;;5034953;28;20532;-64
2023/02/03 15:01:47;;;;;;;1.95;0.40;;;;;;;;;;5052483;28;20067;-64
2023/02/03 15:04:17;;;;;;;1.38;0.30;;;;;;;;;;5052522;28;20071;-64
2023/02/03 15:06:49;;;;;;;2.92;0.32;;;;;;;;;;5035108;28;20065;-65
2023/02/03 15:09:32;;;;;;;0.90;0.40;;;;;;;;;;5045554;28;20059;-65
2023/02/03 15:12:14;;;;;;;3.80;0.50;;;;;;;;;;5058552;28;20044;-65
2023/02/03 15:14:44;;;;;;;2.63;0.45;;;;;;;;;;5092219;28;20052;-65
2023/02/03 15:17:25;;;;;;;0.75;0.47;;;;;;;;;;5041716;28;20044;-66
2023/02/03 15:19:55;;;;;;;2.40;0.32;;;;;;;;;;5041941;28;20059;-66
2023/02/03 15:22:28;;;;;;;0.85;0.40;;;;;;;;;;5092031;28;20055;-65
2023/02/03 15:25:06;;;;;;;0.50;0.30;;;;;;;;;;5099994;28;20047;-66
2023/02/03 15:27:36;;;;;;;0.70;0.32;;;;;;;;;;5078865;28;20071;-65
2023/02/03 15:30:17;;;;;;;0.70;0.30;;;;;;;;;;5079038;28;20507;-64
2023/02/03 15:33:04;;;;;;;0.47;0.28;;;;;;;;;;5061870;28;20040;-64
2023/02/03 15:35:40;;;;;;;0.28;0.20;;;;;;;;;;5114763;28;20047;-64
2023/02/03 15:38:26;;;;;;;1.02;0.45;;;;;;;;;;5112875;28;20039;-65
2023/02/03 15:40:58;;;;;;;2.55;0.73;;;;;;;;;;5114479;28;20390;-65